sensor_id;sensor_type;location;lat;lon;timestamp;P1;durP1;ratioP1;P2;durP2;ratioP2
21501;SDS011;27639;48.674;9.242;2022-08-01T00:00:40;3.38;;;1.52;;
21501;SDS011;27639;48.674;9.242;2022-08-01T00:03:06;3.35;;;1.85;;
21501;SDS011;27639;48.674;9.242;2022-08-01T00:05:32;3.55;;;1.80;;
21501;SDS011;27639;48.674;9.242;2022-08-01T00:07:57;4.38;;;1.98;;
21501;SDS011;27639;48.674;9.242;2022-08-01T00:10:23;3.92;;;1.75;;
21501;SDS011;27639;48.674;9.242;2022-08-01T00:12:49;3.45;;;1.70;;
21501;SDS011;27639;48.674;9.242;2022-08-01T00:15:15;3.42;;;1.77;;
21501;SDS011;27639;48.674;9.242;2022-08-01T00:17:42;3.60;;;1.88;;
21501;SDS011;27639;48.674;9.242;2022-08-01T00:20:09;3.03;;;1.55;;
21501;SDS011;27639;48.674;9.242;2022-08-01T00:22:38;3.88;;;2.03;;
21501;SDS011;27639;48.674;9.242;2022-08-01T00:25:04;3.13;;;1.77;;
21501;SDS011;27639;48.674;9.242;2022-08-01T00:27:30;3.08;;;1.65;;
21501;SDS011;27639;48.674;9.242;2022-08-01T00:29:56;4.05;;;2.00;;
21501;SDS011;27639;48.674;9.242;2022-08-01T00:32:22;3.97;;;1.77;;
21501;SDS011;27639;48.674;9.242;2022-08-01T00:34:47;2.90;;;1.77;;
21501;SDS011;27639;48.674;9.242;2022-08-01T00:37:13;2.65;;;1.50;;
21501;SDS011;27639;48.674;9.242;2022-08-01T00:39:39;3.83;;;1.90;;
21501;SDS011;27639;48.674;9.242;2022-08-01T00:42:08;3.72;;;1.92;;
21501;SDS011;27639;48.674;9.242;2022-08-01T00:44:35;3.85;;;1.88;;
21501;SDS011;27639;48.674;9.242;2022-08-01T00:47:01;3.33;;;1.50;;
21501;SDS011;27639;48.674;9.242;2022-08-01T00:49:27;3.70;;;1.67;;
21501;SDS011;27639;48.674;9.242;2022-08-01T00:51:53;3.97;;;1.90;;
21501;SDS011;27639;48.674;9.242;2022-08-01T00:54:19;3.78;;;1.90;;
21501;SDS011;27639;48.674;9.242;2022-08-01T00:56:45;4.07;;;2.20;;
21501;SDS011;27639;48.674;9.242;2022-08-01T00:59:11;3.17;;;1.75;;
21501;SDS011;27639;48.674;9.242;2022-08-01T01:01:38;5.80;;;2.10;;
21501;SDS011;27639;48.674;9.242;2022-08-01T01:04:04;3.15;;;2.10;;
21501;SDS011;27639;48.674;9.242;2022-08-01T01:09:35;3.42;;;1.98;;
21501;SDS011;27639;48.674;9.242;2022-08-01T01:14:54;3.63;;;2.13;;
21501;SDS011;27639;48.674;9.242;2022-08-01T01:17:28;3.35;;;1.98;;
21501;SDS011;27639;48.674;9.242;2022-08-01T01:20:13;3.20;;;2.00;;
21501;SDS011;27639;48.674;9.242;2022-08-01T01:28:20;4.68;;;2.10;;
21501;SDS011;27639;48.674;9.242;2022-08-01T01:30:59;3.35;;;2.00;;
21501;SDS011;27639;48.674;9.242;2022-08-01T01:33:26;3.60;;;2.00;;
21501;SDS011;27639;48.674;9.242;2022-08-01T01:35:58;3.88;;;1.83;;
21501;SDS011;27639;48.674;9.242;2022-08-01T01:38:28;4.32;;;2.10;;
21501;SDS011;27639;48.674;9.242;2022-08-01T01:40:57;4.13;;;1.90;;
21501;SDS011;27639;48.674;9.242;2022-08-01T01:43:24;3.80;;;2.25;;
21501;SDS011;27639;48.674;9.242;2022-08-01T01:45:51;3.20;;;1.83;;
21501;SDS011;27639;48.674;9.242;2022-08-01T01:48:19;4.90;;;1.88;;
21501;SDS011;27639;48.674;9.242;2022-08-01T01:50:47;5.05;;;2.30;;
21501;SDS011;27639;48.674;9.242;2022-08-01T01:53:14;3.67;;;2.08;;
21501;SDS011;27639;48.674;9.242;2022-08-01T01:55:43;4.55;;;2.20;;
21501;SDS011;27639;48.674;9.242;2022-08-01T01:58:11;3.83;;;2.20;;
21501;SDS011;27639;48.674;9.242;2022-08-01T02:00:39;3.92;;;2.20;;
21501;SDS011;27639;48.674;9.242;2022-08-01T02:03:09;4.00;;;2.17;;
21501;SDS011;27639;48.674;9.242;2022-08-01T02:05:36;3.63;;;2.10;;
21501;SDS011;27639;48.674;9.242;2022-08-01T02:08:03;4.57;;;2.00;;
21501;SDS011;27639;48.674;9.242;2022-08-01T02:10:30;3.65;;;2.15;;
21501;SDS011;27639;48.674;9.242;2022-08-01T02:12:57;5.35;;;1.98;;
21501;SDS011;27639;48.674;9.242;2022-08-01T02:15:28;3.80;;;2.17;;
21501;SDS011;27639;48.674;9.242;2022-08-01T02:17:56;3.60;;;2.20;;
21501;SDS011;27639;48.674;9.242;2022-08-01T02:20:23;4.20;;;2.40;;
21501;SDS011;27639;48.674;9.242;2022-08-01T02:23:01;3.88;;;2.05;;
21501;SDS011;27639;48.674;9.242;2022-08-01T02:25:46;3.33;;;2.15;;
21501;SDS011;27639;48.674;9.242;2022-08-01T02:28:20;4.63;;;2.30;;
21501;SDS011;27639;48.674;9.242;2022-08-01T02:30:53;3.50;;;1.95;;
21501;SDS011;27639;48.674;9.242;2022-08-01T02:33:23;3.67;;;2.17;;
21501;SDS011;27639;48.674;9.242;2022-08-01T02:35:52;4.60;;;2.35;;
21501;SDS011;27639;48.674;9.242;2022-08-01T02:38:20;4.28;;;2.33;;
21501;SDS011;27639;48.674;9.242;2022-08-01T02:40:49;4.57;;;2.42;;
21501;SDS011;27639;48.674;9.242;2022-08-01T02:43:18;3.85;;;2.50;;
21501;SDS011;27639;48.674;9.242;2022-08-01T02:45:47;4.25;;;2.80;;
21501;SDS011;27639;48.674;9.242;2022-08-01T02:48:17;3.80;;;2.30;;
21501;SDS011;27639;48.674;9.242;2022-08-01T02:50:45;4.05;;;2.50;;
21501;SDS011;27639;48.674;9.242;2022-08-01T02:53:16;3.88;;;2.20;;
21501;SDS011;27639;48.674;9.242;2022-08-01T02:55:44;3.70;;;2.30;;
21501;SDS011;27639;48.674;9.242;2022-08-01T02:58:12;3.55;;;2.20;;
21501;SDS011;27639;48.674;9.242;2022-08-01T03:00:40;4.30;;;2.40;;
21501;SDS011;27639;48.674;9.242;2022-08-01T03:03:07;4.75;;;2.30;;
21501;SDS011;27639;48.674;9.242;2022-08-01T03:05:34;3.95;;;2.28;;
21501;SDS011;27639;48.674;9.242;2022-08-01T03:08:01;4.85;;;2.65;;
21501;SDS011;27639;48.674;9.242;2022-08-01T03:10:28;6.15;;;2.35;;
21501;SDS011;27639;48.674;9.242;2022-08-01T03:12:55;3.85;;;2.33;;
21501;SDS011;27639;48.674;9.242;2022-08-01T03:15:24;5.63;;;2.38;;
21501;SDS011;27639;48.674;9.242;2022-08-01T03:17:52;3.92;;;2.45;;
21501;SDS011;27639;48.674;9.242;2022-08-01T03:20:21;4.47;;;2.60;;
21501;SDS011;27639;48.674;9.242;2022-08-01T03:22:50;5.57;;;2.67;;
21501;SDS011;27639;48.674;9.242;2022-08-01T03:25:17;5.38;;;2.40;;
21501;SDS011;27639;48.674;9.242;2022-08-01T03:27:45;4.75;;;2.80;;
21501;SDS011;27639;48.674;9.242;2022-08-01T03:30:22;5.13;;;2.63;;
21501;SDS011;27639;48.674;9.242;2022-08-01T03:32:48;4.32;;;2.40;;
21501;SDS011;27639;48.674;9.242;2022-08-01T03:35:14;3.80;;;2.30;;
21501;SDS011;27639;48.674;9.242;2022-08-01T03:37:47;5.18;;;2.60;;
21501;SDS011;27639;48.674;9.242;2022-08-01T03:42:59;3.80;;;2.50;;
21501;SDS011;27639;48.674;9.242;2022-08-01T03:45:34;5.28;;;2.28;;
21501;SDS011;27639;48.674;9.242;2022-08-01T03:48:03;3.53;;;2.40;;
21501;SDS011;27639;48.674;9.242;2022-08-01T03:50:34;4.68;;;2.60;;
21501;SDS011;27639;48.674;9.242;2022-08-01T03:53:02;3.70;;;2.42;;
21501;SDS011;27639;48.674;9.242;2022-08-01T03:55:29;4.55;;;2.60;;
21501;SDS011;27639;48.674;9.242;2022-08-01T03:57:56;5.15;;;2.67;;
21501;SDS011;27639;48.674;9.242;2022-08-01T04:00:23;4.40;;;2.50;;
21501;SDS011;27639;48.674;9.242;2022-08-01T04:02:50;4.72;;;2.25;;
21501;SDS011;27639;48.674;9.242;2022-08-01T04:05:16;6.03;;;2.20;;
21501;SDS011;27639;48.674;9.242;2022-08-01T04:07:49;4.47;;;2.25;;
21501;SDS011;27639;48.674;9.242;2022-08-01T04:10:24;6.05;;;2.00;;
21501;SDS011;27639;48.674;9.242;2022-08-01T04:12:51;3.67;;;1.98;;
21501;SDS011;27639;48.674;9.242;2022-08-01T04:15:17;4.03;;;2.28;;
21501;SDS011;27639;48.674;9.242;2022-08-01T04:17:42;3.45;;;2.20;;
21501;SDS011;27639;48.674;9.242;2022-08-01T04:20:08;3.63;;;2.40;;
21501;SDS011;27639;48.674;9.242;2022-08-01T04:22:36;3.67;;;2.33;;
21501;SDS011;27639;48.674;9.242;2022-08-01T04:25:02;3.88;;;2.28;;
21501;SDS011;27639;48.674;9.242;2022-08-01T04:27:35;4.65;;;2.65;;
21501;SDS011;27639;48.674;9.242;2022-08-01T04:30:03;5.63;;;2.30;;
21501;SDS011;27639;48.674;9.242;2022-08-01T04:32:31;4.00;;;2.38;;
21501;SDS011;27639;48.674;9.242;2022-08-01T04:35:00;4.50;;;2.10;;
21501;SDS011;27639;48.674;9.242;2022-08-01T04:37:32;4.07;;;2.10;;
21501;SDS011;27639;48.674;9.242;2022-08-01T04:40:02;3.92;;;2.10;;
21501;SDS011;27639;48.674;9.242;2022-08-01T04:42:29;5.20;;;2.50;;
21501;SDS011;27639;48.674;9.242;2022-08-01T04:44:55;3.53;;;2.10;;
21501;SDS011;27639;48.674;9.242;2022-08-01T04:47:22;4.97;;;2.28;;
21501;SDS011;27639;48.674;9.242;2022-08-01T04:49:48;4.28;;;2.40;;
21501;SDS011;27639;48.674;9.242;2022-08-01T04:52:14;5.72;;;2.65;;
21501;SDS011;27639;48.674;9.242;2022-08-01T04:54:42;6.38;;;2.58;;
21501;SDS011;27639;48.674;9.242;2022-08-01T04:57:08;6.47;;;2.45;;
21501;SDS011;27639;48.674;9.242;2022-08-01T04:59:35;5.75;;;2.70;;
21501;SDS011;27639;48.674;9.242;2022-08-01T05:02:08;5.18;;;2.70;;
21501;SDS011;27639;48.674;9.242;2022-08-01T05:04:37;4.70;;;2.65;;
21501;SDS011;27639;48.674;9.242;2022-08-01T05:07:03;4.07;;;2.38;;
21501;SDS011;27639;48.674;9.242;2022-08-01T05:09:30;3.25;;;2.08;;
21501;SDS011;27639;48.674;9.242;2022-08-01T05:11:56;3.95;;;2.13;;
21501;SDS011;27639;48.674;9.242;2022-08-01T05:14:24;4.85;;;2.40;;
21501;SDS011;27639;48.674;9.242;2022-08-01T05:16:53;3.53;;;2.10;;
21501;SDS011;27639;48.674;9.242;2022-08-01T05:19:18;3.83;;;2.08;;
21501;SDS011;27639;48.674;9.242;2022-08-01T05:21:44;3.80;;;1.90;;
21501;SDS011;27639;48.674;9.242;2022-08-01T05:24:10;3.45;;;1.90;;
21501;SDS011;27639;48.674;9.242;2022-08-01T05:26:36;4.20;;;2.20;;
21501;SDS011;27639;48.674;9.242;2022-08-01T05:29:02;3.45;;;2.20;;
21501;SDS011;27639;48.674;9.242;2022-08-01T05:31:28;4.25;;;2.30;;
21501;SDS011;27639;48.674;9.242;2022-08-01T05:33:53;4.05;;;2.10;;
21501;SDS011;27639;48.674;9.242;2022-08-01T05:36:19;3.65;;;2.00;;
21501;SDS011;27639;48.674;9.242;2022-08-01T05:38:44;3.47;;;1.90;;
21501;SDS011;27639;48.674;9.242;2022-08-01T05:41:10;3.85;;;1.60;;
21501;SDS011;27639;48.674;9.242;2022-08-01T05:43:36;3.80;;;1.38;;
21501;SDS011;27639;48.674;9.242;2022-08-01T05:46:02;3.65;;;1.92;;
21501;SDS011;27639;48.674;9.242;2022-08-01T05:48:27;4.03;;;1.67;;
21501;SDS011;27639;48.674;9.242;2022-08-01T05:50:53;5.07;;;2.30;;
21501;SDS011;27639;48.674;9.242;2022-08-01T05:53:19;4.35;;;2.10;;
21501;SDS011;27639;48.674;9.242;2022-08-01T05:55:45;15.27;;;6.53;;
21501;SDS011;27639;48.674;9.242;2022-08-01T05:58:10;23.13;;;11.25;;
21501;SDS011;27639;48.674;9.242;2022-08-01T06:00:36;8.90;;;4.45;;
21501;SDS011;27639;48.674;9.242;2022-08-01T06:03:01;6.47;;;2.85;;
21501;SDS011;27639;48.674;9.242;2022-08-01T06:05:27;4.38;;;2.20;;
21501;SDS011;27639;48.674;9.242;2022-08-01T06:07:53;4.00;;;1.98;;
21501;SDS011;27639;48.674;9.242;2022-08-01T06:10:18;3.90;;;1.92;;
21501;SDS011;27639;48.674;9.242;2022-08-01T06:12:44;4.28;;;1.75;;
21501;SDS011;27639;48.674;9.242;2022-08-01T06:15:10;2.85;;;1.45;;
21501;SDS011;27639;48.674;9.242;2022-08-01T06:17:36;3.55;;;2.00;;
21501;SDS011;27639;48.674;9.242;2022-08-01T06:20:02;4.00;;;1.80;;
21501;SDS011;27639;48.674;9.242;2022-08-01T06:22:28;3.40;;;1.73;;
21501;SDS011;27639;48.674;9.242;2022-08-01T06:24:54;6.28;;;1.67;;
21501;SDS011;27639;48.674;9.242;2022-08-01T06:27:19;3.25;;;1.38;;
21501;SDS011;27639;48.674;9.242;2022-08-01T06:29:45;3.88;;;1.55;;
21501;SDS011;27639;48.674;9.242;2022-08-01T06:32:11;2.90;;;1.40;;
21501;SDS011;27639;48.674;9.242;2022-08-01T06:34:36;3.10;;;1.58;;
21501;SDS011;27639;48.674;9.242;2022-08-01T06:37:02;3.53;;;1.50;;
21501;SDS011;27639;48.674;9.242;2022-08-01T06:39:27;4.15;;;1.45;;
21501;SDS011;27639;48.674;9.242;2022-08-01T06:41:53;3.22;;;1.50;;
21501;SDS011;27639;48.674;9.242;2022-08-01T06:44:18;3.30;;;1.50;;
21501;SDS011;27639;48.674;9.242;2022-08-01T06:46:44;3.65;;;1.60;;
21501;SDS011;27639;48.674;9.242;2022-08-01T06:49:10;3.75;;;1.50;;
21501;SDS011;27639;48.674;9.242;2022-08-01T06:51:35;3.83;;;1.80;;
21501;SDS011;27639;48.674;9.242;2022-08-01T06:54:01;2.50;;;1.30;;
21501;SDS011;27639;48.674;9.242;2022-08-01T06:56:26;3.13;;;1.35;;
21501;SDS011;27639;48.674;9.242;2022-08-01T06:58:52;3.55;;;1.25;;
21501;SDS011;27639;48.674;9.242;2022-08-01T07:01:18;2.83;;;1.48;;
21501;SDS011;27639;48.674;9.242;2022-08-01T07:03:43;3.00;;;1.25;;
21501;SDS011;27639;48.674;9.242;2022-08-01T07:06:09;2.92;;;1.17;;
21501;SDS011;27639;48.674;9.242;2022-08-01T07:08:35;3.03;;;1.10;;
21501;SDS011;27639;48.674;9.242;2022-08-01T07:11:01;3.10;;;1.23;;
21501;SDS011;27639;48.674;9.242;2022-08-01T07:13:28;3.15;;;1.15;;
21501;SDS011;27639;48.674;9.242;2022-08-01T07:15:55;3.88;;;1.60;;
21501;SDS011;27639;48.674;9.242;2022-08-01T07:18:21;2.95;;;1.25;;
21501;SDS011;27639;48.674;9.242;2022-08-01T07:20:48;2.88;;;1.50;;
21501;SDS011;27639;48.674;9.242;2022-08-01T07:23:14;4.60;;;1.42;;
21501;SDS011;27639;48.674;9.242;2022-08-01T07:25:39;3.05;;;1.52;;
21501;SDS011;27639;48.674;9.242;2022-08-01T07:28:05;2.70;;;1.40;;
21501;SDS011;27639;48.674;9.242;2022-08-01T07:30:31;3.47;;;1.40;;
21501;SDS011;27639;48.674;9.242;2022-08-01T07:32:56;2.65;;;1.38;;
21501;SDS011;27639;48.674;9.242;2022-08-01T07:35:22;2.47;;;1.38;;
21501;SDS011;27639;48.674;9.242;2022-08-01T07:37:47;2.85;;;1.50;;
21501;SDS011;27639;48.674;9.242;2022-08-01T07:40:13;3.60;;;1.52;;
21501;SDS011;27639;48.674;9.242;2022-08-01T07:42:39;2.53;;;1.30;;
21501;SDS011;27639;48.674;9.242;2022-08-01T07:45:08;2.97;;;1.45;;
21501;SDS011;27639;48.674;9.242;2022-08-01T07:47:34;2.80;;;1.42;;
21501;SDS011;27639;48.674;9.242;2022-08-01T07:50:00;3.00;;;1.70;;
21501;SDS011;27639;48.674;9.242;2022-08-01T07:52:30;3.13;;;1.70;;
21501;SDS011;27639;48.674;9.242;2022-08-01T07:54:56;3.35;;;1.58;;
21501;SDS011;27639;48.674;9.242;2022-08-01T07:57:23;4.55;;;1.60;;
21501;SDS011;27639;48.674;9.242;2022-08-01T07:59:49;2.92;;;1.50;;
21501;SDS011;27639;48.674;9.242;2022-08-01T08:02:15;3.22;;;1.48;;
21501;SDS011;27639;48.674;9.242;2022-08-01T08:04:41;3.30;;;1.50;;
21501;SDS011;27639;48.674;9.242;2022-08-01T08:07:06;4.70;;;1.73;;
21501;SDS011;27639;48.674;9.242;2022-08-01T08:09:32;4.45;;;1.65;;
21501;SDS011;27639;48.674;9.242;2022-08-01T08:11:58;3.67;;;1.95;;
21501;SDS011;27639;48.674;9.242;2022-08-01T08:14:23;3.20;;;1.77;;
21501;SDS011;27639;48.674;9.242;2022-08-01T08:16:49;3.65;;;1.70;;
21501;SDS011;27639;48.674;9.242;2022-08-01T08:19:15;4.10;;;1.70;;
21501;SDS011;27639;48.674;9.242;2022-08-01T08:21:41;3.00;;;1.30;;
21501;SDS011;27639;48.674;9.242;2022-08-01T08:24:07;4.28;;;1.75;;
21501;SDS011;27639;48.674;9.242;2022-08-01T08:26:48;3.38;;;1.50;;
21501;SDS011;27639;48.674;9.242;2022-08-01T08:29:14;2.97;;;1.70;;
21501;SDS011;27639;48.674;9.242;2022-08-01T08:31:41;4.90;;;1.90;;
21501;SDS011;27639;48.674;9.242;2022-08-01T08:34:07;4.00;;;1.85;;
21501;SDS011;27639;48.674;9.242;2022-08-01T08:36:33;3.15;;;1.83;;
21501;SDS011;27639;48.674;9.242;2022-08-01T08:38:58;5.38;;;2.17;;
21501;SDS011;27639;48.674;9.242;2022-08-01T08:41:31;4.75;;;2.47;;
21501;SDS011;27639;48.674;9.242;2022-08-01T08:43:57;5.07;;;1.98;;
21501;SDS011;27639;48.674;9.242;2022-08-01T08:46:25;4.38;;;2.30;;
21501;SDS011;27639;48.674;9.242;2022-08-01T08:48:52;5.03;;;2.30;;
21501;SDS011;27639;48.674;9.242;2022-08-01T08:51:18;4.22;;;2.10;;
21501;SDS011;27639;48.674;9.242;2022-08-01T08:53:44;4.65;;;2.10;;
21501;SDS011;27639;48.674;9.242;2022-08-01T08:56:12;3.75;;;2.20;;
21501;SDS011;27639;48.674;9.242;2022-08-01T08:58:45;3.85;;;2.40;;
21501;SDS011;27639;48.674;9.242;2022-08-01T09:01:11;4.32;;;2.10;;
21501;SDS011;27639;48.674;9.242;2022-08-01T09:03:38;4.50;;;2.30;;
21501;SDS011;27639;48.674;9.242;2022-08-01T09:06:04;3.63;;;2.25;;
21501;SDS011;27639;48.674;9.242;2022-08-01T09:08:30;4.18;;;2.50;;
21501;SDS011;27639;48.674;9.242;2022-08-01T09:10:57;5.20;;;2.53;;
21501;SDS011;27639;48.674;9.242;2022-08-01T09:13:22;5.53;;;2.00;;
21501;SDS011;27639;48.674;9.242;2022-08-01T09:15:50;3.30;;;2.05;;
21501;SDS011;27639;48.674;9.242;2022-08-01T09:18:34;3.53;;;2.20;;
21501;SDS011;27639;48.674;9.242;2022-08-01T09:21:20;3.42;;;2.20;;
21501;SDS011;27639;48.674;9.242;2022-08-01T09:23:50;5.50;;;3.00;;
21501;SDS011;27639;48.674;9.242;2022-08-01T09:26:20;6.35;;;2.25;;
21501;SDS011;27639;48.674;9.242;2022-08-01T09:28:53;4.50;;;2.75;;
21501;SDS011;27639;48.674;9.242;2022-08-01T09:31:19;3.83;;;2.50;;
21501;SDS011;27639;48.674;9.242;2022-08-01T09:36:13;4.25;;;2.60;;
21501;SDS011;27639;48.674;9.242;2022-08-01T09:38:38;5.50;;;2.85;;
21501;SDS011;27639;48.674;9.242;2022-08-01T09:41:04;4.50;;;2.95;;
21501;SDS011;27639;48.674;9.242;2022-08-01T09:43:30;5.38;;;3.00;;
21501;SDS011;27639;48.674;9.242;2022-08-01T09:45:56;4.68;;;2.50;;
21501;SDS011;27639;48.674;9.242;2022-08-01T09:48:23;3.85;;;2.42;;
21501;SDS011;27639;48.674;9.242;2022-08-01T09:50:50;5.57;;;2.95;;
21501;SDS011;27639;48.674;9.242;2022-08-01T09:53:17;4.90;;;3.05;;
21501;SDS011;27639;48.674;9.242;2022-08-01T09:55:44;4.13;;;3.00;;
21501;SDS011;27639;48.674;9.242;2022-08-01T09:58:09;6.40;;;3.38;;
21501;SDS011;27639;48.674;9.242;2022-08-01T10:00:36;5.47;;;3.00;;
21501;SDS011;27639;48.674;9.242;2022-08-01T10:03:19;4.70;;;3.33;;
21501;SDS011;27639;48.674;9.242;2022-08-01T10:05:49;5.28;;;4.05;;
21501;SDS011;27639;48.674;9.242;2022-08-01T10:08:16;5.22;;;3.78;;
21501;SDS011;27639;48.674;9.242;2022-08-01T10:10:45;5.13;;;3.25;;
21501;SDS011;27639;48.674;9.242;2022-08-01T10:13:33;5.07;;;3.42;;
21501;SDS011;27639;48.674;9.242;2022-08-01T10:15:59;5.70;;;4.00;;
21501;SDS011;27639;48.674;9.242;2022-08-01T10:18:26;5.85;;;3.72;;
21501;SDS011;27639;48.674;9.242;2022-08-01T10:20:54;5.00;;;3.63;;
21501;SDS011;27639;48.674;9.242;2022-08-01T10:23:19;4.60;;;3.28;;
21501;SDS011;27639;48.674;9.242;2022-08-01T10:25:46;5.95;;;3.92;;
21501;SDS011;27639;48.674;9.242;2022-08-01T10:28:14;6.15;;;4.30;;
21501;SDS011;27639;48.674;9.242;2022-08-01T10:30:43;6.00;;;4.00;;
21501;SDS011;27639;48.674;9.242;2022-08-01T10:33:10;5.97;;;3.92;;
21501;SDS011;27639;48.674;9.242;2022-08-01T10:35:37;7.63;;;4.30;;
21501;SDS011;27639;48.674;9.242;2022-08-01T10:38:04;6.03;;;4.78;;
21501;SDS011;27639;48.674;9.242;2022-08-01T10:40:30;6.65;;;4.40;;
21501;SDS011;27639;48.674;9.242;2022-08-01T10:42:56;6.03;;;4.32;;
21501;SDS011;27639;48.674;9.242;2022-08-01T10:45:22;8.30;;;4.90;;
21501;SDS011;27639;48.674;9.242;2022-08-01T10:47:56;8.10;;;4.68;;
21501;SDS011;27639;48.674;9.242;2022-08-01T10:50:44;7.30;;;4.53;;
21501;SDS011;27639;48.674;9.242;2022-08-01T10:55:46;5.80;;;4.25;;
21501;SDS011;27639;48.674;9.242;2022-08-01T10:58:21;7.05;;;4.60;;
21501;SDS011;27639;48.674;9.242;2022-08-01T11:01:11;5.15;;;3.88;;
21501;SDS011;27639;48.674;9.242;2022-08-01T11:03:44;6.88;;;4.53;;
21501;SDS011;27639;48.674;9.242;2022-08-01T11:06:48;6.93;;;4.35;;
21501;SDS011;27639;48.674;9.242;2022-08-01T11:14:28;6.40;;;4.28;;
21501;SDS011;27639;48.674;9.242;2022-08-01T11:16:54;4.72;;;4.00;;
21501;SDS011;27639;48.674;9.242;2022-08-01T11:19:21;6.50;;;4.28;;
21501;SDS011;27639;48.674;9.242;2022-08-01T11:24:54;4.80;;;3.42;;
21501;SDS011;27639;48.674;9.242;2022-08-01T11:29:41;4.65;;;2.78;;
21501;SDS011;27639;48.674;9.242;2022-08-01T11:32:26;5.18;;;2.75;;
21501;SDS011;27639;48.674;9.242;2022-08-01T11:34:52;5.28;;;2.95;;
21501;SDS011;27639;48.674;9.242;2022-08-01T11:37:24;4.18;;;3.08;;
21501;SDS011;27639;48.674;9.242;2022-08-01T11:42:42;5.38;;;3.33;;
21501;SDS011;27639;48.674;9.242;2022-08-01T11:45:08;5.70;;;3.10;;
21501;SDS011;27639;48.674;9.242;2022-08-01T11:50:34;4.97;;;2.85;;
21501;SDS011;27639;48.674;9.242;2022-08-01T11:53:03;4.50;;;3.00;;
21501;SDS011;27639;48.674;9.242;2022-08-01T11:55:30;3.95;;;3.00;;
21501;SDS011;27639;48.674;9.242;2022-08-01T11:58:00;4.40;;;2.95;;
21501;SDS011;27639;48.674;9.242;2022-08-01T12:02:57;6.03;;;3.50;;
21501;SDS011;27639;48.674;9.242;2022-08-01T12:05:28;4.10;;;3.08;;
21501;SDS011;27639;48.674;9.242;2022-08-01T12:07:55;6.13;;;2.70;;
21501;SDS011;27639;48.674;9.242;2022-08-01T12:10:22;3.80;;;2.72;;
21501;SDS011;27639;48.674;9.242;2022-08-01T12:12:51;3.78;;;3.00;;
21501;SDS011;27639;48.674;9.242;2022-08-01T12:15:24;4.05;;;3.05;;
21501;SDS011;27639;48.674;9.242;2022-08-01T12:18:11;5.20;;;3.17;;
21501;SDS011;27639;48.674;9.242;2022-08-01T12:20:38;5.30;;;2.95;;
21501;SDS011;27639;48.674;9.242;2022-08-01T12:23:07;5.63;;;3.20;;
21501;SDS011;27639;48.674;9.242;2022-08-01T12:25:37;4.20;;;2.90;;
21501;SDS011;27639;48.674;9.242;2022-08-01T12:28:08;5.47;;;3.00;;
21501;SDS011;27639;48.674;9.242;2022-08-01T12:30:39;5.97;;;2.90;;
21501;SDS011;27639;48.674;9.242;2022-08-01T12:33:06;4.63;;;3.00;;
21501;SDS011;27639;48.674;9.242;2022-08-01T12:35:34;4.63;;;3.10;;
21501;SDS011;27639;48.674;9.242;2022-08-01T12:38:02;4.70;;;3.10;;
21501;SDS011;27639;48.674;9.242;2022-08-01T12:40:32;3.92;;;2.80;;
21501;SDS011;27639;48.674;9.242;2022-08-01T12:43:00;4.57;;;3.17;;
21501;SDS011;27639;48.674;9.242;2022-08-01T12:45:41;3.55;;;2.53;;
21501;SDS011;27639;48.674;9.242;2022-08-01T12:48:09;4.75;;;3.22;;
21501;SDS011;27639;48.674;9.242;2022-08-01T12:50:40;4.97;;;2.78;;
21501;SDS011;27639;48.674;9.242;2022-08-01T12:53:09;4.28;;;2.63;;
21501;SDS011;27639;48.674;9.242;2022-08-01T12:55:48;3.70;;;2.50;;
21501;SDS011;27639;48.674;9.242;2022-08-01T12:58:16;4.35;;;2.92;;
21501;SDS011;27639;48.674;9.242;2022-08-01T13:00:43;6.03;;;3.10;;
21501;SDS011;27639;48.674;9.242;2022-08-01T13:03:12;5.53;;;3.08;;
21501;SDS011;27639;48.674;9.242;2022-08-01T13:05:46;4.60;;;2.65;;
21501;SDS011;27639;48.674;9.242;2022-08-01T13:08:17;4.93;;;2.63;;
21501;SDS011;27639;48.674;9.242;2022-08-01T13:10:48;4.68;;;3.05;;
21501;SDS011;27639;48.674;9.242;2022-08-01T13:13:15;6.70;;;2.72;;
21501;SDS011;27639;48.674;9.242;2022-08-01T13:15:43;5.07;;;2.70;;
21501;SDS011;27639;48.674;9.242;2022-08-01T13:18:22;4.03;;;2.70;;
21501;SDS011;27639;48.674;9.242;2022-08-01T13:20:50;3.55;;;2.60;;
21501;SDS011;27639;48.674;9.242;2022-08-01T13:23:35;6.45;;;2.58;;
21501;SDS011;27639;48.674;9.242;2022-08-01T13:26:01;3.85;;;2.50;;
21501;SDS011;27639;48.674;9.242;2022-08-01T13:28:27;5.43;;;2.65;;
21501;SDS011;27639;48.674;9.242;2022-08-01T13:30:57;5.75;;;2.70;;
21501;SDS011;27639;48.674;9.242;2022-08-01T13:33:25;4.88;;;2.50;;
21501;SDS011;27639;48.674;9.242;2022-08-01T13:35:55;4.45;;;2.60;;
21501;SDS011;27639;48.674;9.242;2022-08-01T13:38:21;5.18;;;2.75;;
21501;SDS011;27639;48.674;9.242;2022-08-01T13:41:08;5.20;;;2.35;;
21501;SDS011;27639;48.674;9.242;2022-08-01T13:43:34;4.88;;;2.70;;
21501;SDS011;27639;48.674;9.242;2022-08-01T13:46:00;6.28;;;2.75;;
21501;SDS011;27639;48.674;9.242;2022-08-01T13:48:28;5.88;;;2.50;;
21501;SDS011;27639;48.674;9.242;2022-08-01T13:50:54;5.32;;;2.80;;
21501;SDS011;27639;48.674;9.242;2022-08-01T13:53:20;4.97;;;2.90;;
21501;SDS011;27639;48.674;9.242;2022-08-01T13:55:45;5.78;;;2.75;;
21501;SDS011;27639;48.674;9.242;2022-08-01T13:58:11;4.55;;;2.45;;
21501;SDS011;27639;48.674;9.242;2022-08-01T14:00:37;5.43;;;2.60;;
21501;SDS011;27639;48.674;9.242;2022-08-01T14:03:02;6.35;;;2.70;;
21501;SDS011;27639;48.674;9.242;2022-08-01T14:05:28;4.05;;;2.20;;
21501;SDS011;27639;48.674;9.242;2022-08-01T14:07:54;3.50;;;2.03;;
21501;SDS011;27639;48.674;9.242;2022-08-01T14:10:20;3.47;;;2.08;;
21501;SDS011;27639;48.674;9.242;2022-08-01T14:12:46;3.67;;;2.15;;
21501;SDS011;27639;48.674;9.242;2022-08-01T14:15:12;3.60;;;2.25;;
21501;SDS011;27639;48.674;9.242;2022-08-01T14:17:38;3.30;;;2.13;;
21501;SDS011;27639;48.674;9.242;2022-08-01T14:20:04;3.70;;;2.40;;
21501;SDS011;27639;48.674;9.242;2022-08-01T14:22:30;3.97;;;2.20;;
21501;SDS011;27639;48.674;9.242;2022-08-01T14:24:56;4.60;;;2.03;;
21501;SDS011;27639;48.674;9.242;2022-08-01T14:27:21;5.18;;;1.70;;
21501;SDS011;27639;48.674;9.242;2022-08-01T14:29:47;3.40;;;2.00;;
21501;SDS011;27639;48.674;9.242;2022-08-01T14:32:13;3.97;;;1.92;;
21501;SDS011;27639;48.674;9.242;2022-08-01T14:34:38;4.32;;;2.03;;
21501;SDS011;27639;48.674;9.242;2022-08-01T14:37:04;8.85;;;2.00;;
21501;SDS011;27639;48.674;9.242;2022-08-01T14:39:29;3.28;;;2.03;;
21501;SDS011;27639;48.674;9.242;2022-08-01T14:41:55;4.85;;;2.00;;
21501;SDS011;27639;48.674;9.242;2022-08-01T14:44:20;3.92;;;2.05;;
21501;SDS011;27639;48.674;9.242;2022-08-01T14:46:46;3.60;;;2.10;;
21501;SDS011;27639;48.674;9.242;2022-08-01T14:49:13;3.35;;;2.10;;
21501;SDS011;27639;48.674;9.242;2022-08-01T14:51:39;5.07;;;2.05;;
21501;SDS011;27639;48.674;9.242;2022-08-01T14:54:04;4.05;;;2.28;;
21501;SDS011;27639;48.674;9.242;2022-08-01T14:56:30;3.53;;;1.95;;
21501;SDS011;27639;48.674;9.242;2022-08-01T14:58:56;3.60;;;2.05;;
21501;SDS011;27639;48.674;9.242;2022-08-01T15:01:22;3.53;;;2.15;;
21501;SDS011;27639;48.674;9.242;2022-08-01T15:03:48;4.60;;;2.30;;
21501;SDS011;27639;48.674;9.242;2022-08-01T15:06:15;4.15;;;2.10;;
21501;SDS011;27639;48.674;9.242;2022-08-01T15:08:41;3.58;;;1.98;;
21501;SDS011;27639;48.674;9.242;2022-08-01T15:11:06;4.93;;;2.10;;
21501;SDS011;27639;48.674;9.242;2022-08-01T15:13:33;4.25;;;2.17;;
21501;SDS011;27639;48.674;9.242;2022-08-01T15:15:59;4.70;;;2.15;;
21501;SDS011;27639;48.674;9.242;2022-08-01T15:18:24;3.85;;;1.98;;
21501;SDS011;27639;48.674;9.242;2022-08-01T15:20:50;4.90;;;2.00;;
21501;SDS011;27639;48.674;9.242;2022-08-01T15:23:16;3.67;;;2.10;;
21501;SDS011;27639;48.674;9.242;2022-08-01T15:25:41;5.63;;;2.05;;
21501;SDS011;27639;48.674;9.242;2022-08-01T15:28:10;3.72;;;2.00;;
21501;SDS011;27639;48.674;9.242;2022-08-01T15:30:36;4.90;;;2.15;;